sensor_id;sensor_type;location;lat;lon;timestamp;P1;durP1;ratioP1;P2;durP2;ratioP2
14052;SDS011;7101;51.600;7.310;2022-12-29T00:00:11;1.45;;;1.00;;
14052;SDS011;7101;51.600;7.310;2022-12-29T00:02:39;1.30;;;0.90;;
14052;SDS011;7101;51.600;7.310;2022-12-29T00:05:06;0.73;;;0.73;;
14052;SDS011;7101;51.600;7.310;2022-12-29T00:07:34;0.90;;;0.80;;
14052;SDS011;7101;51.600;7.310;2022-12-29T00:10:01;1.55;;;0.90;;
14052;SDS011;7101;51.600;7.310;2022-12-29T00:12:28;1.60;;;0.90;;
14052;SDS011;7101;51.600;7.310;2022-12-29T00:15:14;1.08;;;0.77;;
14052;SDS011;7101;51.600;7.310;2022-12-29T00:17:59;1.27;;;0.90;;
14052;SDS011;7101;51.600;7.310;2022-12-29T00:20:26;1.85;;;1.05;;
14052;SDS011;7101;51.600;7.310;2022-12-29T00:23:11;1.60;;;1.10;;
14052;SDS011;7101;51.600;7.310;2022-12-29T00:25:56;1.00;;;0.90;;
14052;SDS011;7101;51.600;7.310;2022-12-29T00:28:40;1.30;;;1.05;;
14052;SDS011;7101;51.600;7.310;2022-12-29T00:31:24;1.00;;;0.90;;
14052;SDS011;7101;51.600;7.310;2022-12-29T00:34:10;1.42;;;1.02;;
14052;SDS011;7101;51.600;7.310;2022-12-29T00:36:55;1.88;;;1.02;;
14052;SDS011;7101;51.600;7.310;2022-12-29T00:39:24;1.33;;;1.00;;
14052;SDS011;7101;51.600;7.310;2022-12-29T00:42:08;1.13;;;0.90;;
14052;SDS011;7101;51.600;7.310;2022-12-29T00:44:58;1.10;;;1.00;;
14052;SDS011;7101;51.600;7.310;2022-12-29T00:47:25;5.93;;;0.90;;
14052;SDS011;7101;51.600;7.310;2022-12-29T00:49:52;1.15;;;0.98;;
14052;SDS011;7101;51.600;7.310;2022-12-29T00:52:18;1.08;;;0.80;;
14052;SDS011;7101;51.600;7.310;2022-12-29T00:54:46;1.38;;;0.90;;
14052;SDS011;7101;51.600;7.310;2022-12-29T00:57:13;1.35;;;0.90;;
14052;SDS011;7101;51.600;7.310;2022-12-29T00:59:40;1.20;;;0.70;;
14052;SDS011;7101;51.600;7.310;2022-12-29T01:02:08;2.20;;;0.88;;
14052;SDS011;7101;51.600;7.310;2022-12-29T01:04:35;1.38;;;0.90;;
14052;SDS011;7101;51.600;7.310;2022-12-29T01:07:04;1.65;;;0.80;;
14052;SDS011;7101;51.600;7.310;2022-12-29T01:09:31;3.40;;;0.80;;
14052;SDS011;7101;51.600;7.310;2022-12-29T01:12:17;0.73;;;0.60;;
14052;SDS011;7101;51.600;7.310;2022-12-29T01:15:05;1.10;;;0.77;;
14052;SDS011;7101;51.600;7.310;2022-12-29T01:17:33;0.90;;;0.80;;
14052;SDS011;7101;51.600;7.310;2022-12-29T01:20:00;0.98;;;0.80;;
14052;SDS011;7101;51.600;7.310;2022-12-29T01:22:27;1.08;;;0.70;;
14052;SDS011;7101;51.600;7.310;2022-12-29T01:24:54;0.70;;;0.70;;
14052;SDS011;7101;51.600;7.310;2022-12-29T01:27:22;1.00;;;0.85;;
14052;SDS011;7101;51.600;7.310;2022-12-29T01:29:49;0.93;;;0.60;;
14052;SDS011;7101;51.600;7.310;2022-12-29T01:32:16;0.82;;;0.65;;
14052;SDS011;7101;51.600;7.310;2022-12-29T01:34:43;1.10;;;0.70;;
14052;SDS011;7101;51.600;7.310;2022-12-29T01:37:10;2.38;;;0.98;;
14052;SDS011;7101;51.600;7.310;2022-12-29T01:39:37;0.90;;;0.77;;
14052;SDS011;7101;51.600;7.310;2022-12-29T01:42:04;1.00;;;0.90;;
14052;SDS011;7101;51.600;7.310;2022-12-29T01:47:29;0.60;;;0.60;;
14052;SDS011;7101;51.600;7.310;2022-12-29T01:50:01;1.05;;;0.90;;
14052;SDS011;7101;51.600;7.310;2022-12-29T01:52:32;0.95;;;0.73;;
14052;SDS011;7101;51.600;7.310;2022-12-29T01:55:01;1.05;;;0.82;;
14052;SDS011;7101;51.600;7.310;2022-12-29T01:57:31;1.42;;;0.80;;
14052;SDS011;7101;51.600;7.310;2022-12-29T02:00:05;0.68;;;0.60;;
14052;SDS011;7101;51.600;7.310;2022-12-29T02:02:34;1.48;;;0.80;;
14052;SDS011;7101;51.600;7.310;2022-12-29T02:05:01;0.80;;;0.60;;
14052;SDS011;7101;51.600;7.310;2022-12-29T02:07:33;0.60;;;0.60;;
14052;SDS011;7101;51.600;7.310;2022-12-29T02:10:00;0.50;;;0.50;;
14052;SDS011;7101;51.600;7.310;2022-12-29T02:12:28;0.60;;;0.60;;
14052;SDS011;7101;51.600;7.310;2022-12-29T02:14:56;1.42;;;0.60;;
14052;SDS011;7101;51.600;7.310;2022-12-29T02:17:44;0.77;;;0.73;;
14052;SDS011;7101;51.600;7.310;2022-12-29T02:23:24;0.90;;;0.70;;
14052;SDS011;7101;51.600;7.310;2022-12-29T02:26:16;1.58;;;0.50;;
14052;SDS011;7101;51.600;7.310;2022-12-29T02:29:03;1.95;;;0.68;;
14052;SDS011;7101;51.600;7.310;2022-12-29T02:31:54;1.33;;;0.70;;
14052;SDS011;7101;51.600;7.310;2022-12-29T02:34:26;0.57;;;0.57;;
14052;SDS011;7101;51.600;7.310;2022-12-29T02:37:06;0.70;;;0.60;;
14052;SDS011;7101;51.600;7.310;2022-12-29T02:39:40;0.80;;;0.60;;
14052;SDS011;7101;51.600;7.310;2022-12-29T02:42:17;1.42;;;0.70;;
14052;SDS011;7101;51.600;7.310;2022-12-29T02:44:52;1.55;;;0.63;;
14052;SDS011;7101;51.600;7.310;2022-12-29T02:47:28;0.75;;;0.60;;
14052;SDS011;7101;51.600;7.310;2022-12-29T02:50:01;0.90;;;0.60;;
14052;SDS011;7101;51.600;7.310;2022-12-29T02:52:34;0.68;;;0.68;;
14052;SDS011;7101;51.600;7.310;2022-12-29T02:55:05;2.17;;;0.75;;
14052;SDS011;7101;51.600;7.310;2022-12-29T02:57:32;0.95;;;0.70;;
14052;SDS011;7101;51.600;7.310;2022-12-29T03:00:02;0.82;;;0.50;;
14052;SDS011;7101;51.600;7.310;2022-12-29T03:02:44;1.25;;;0.63;;
14052;SDS011;7101;51.600;7.310;2022-12-29T03:05:48;1.95;;;0.77;;
14052;SDS011;7101;51.600;7.310;2022-12-29T03:08:34;3.92;;;0.70;;
14052;SDS011;7101;51.600;7.310;2022-12-29T03:11:07;0.95;;;0.63;;
14052;SDS011;7101;51.600;7.310;2022-12-29T03:13:57;1.65;;;0.80;;
14052;SDS011;7101;51.600;7.310;2022-12-29T03:16:50;1.20;;;0.60;;
14052;SDS011;7101;51.600;7.310;2022-12-29T03:19:25;2.55;;;1.00;;
14052;SDS011;7101;51.600;7.310;2022-12-29T03:21:57;1.25;;;0.70;;
14052;SDS011;7101;51.600;7.310;2022-12-29T03:24:46;2.25;;;0.93;;
14052;SDS011;7101;51.600;7.310;2022-12-29T03:27:16;1.25;;;0.80;;
14052;SDS011;7101;51.600;7.310;2022-12-29T03:29:47;1.08;;;0.70;;
14052;SDS011;7101;51.600;7.310;2022-12-29T03:32:20;1.88;;;1.00;;
14052;SDS011;7101;51.600;7.310;2022-12-29T03:34:51;1.67;;;0.80;;
14052;SDS011;7101;51.600;7.310;2022-12-29T03:37:22;0.60;;;0.60;;
14052;SDS011;7101;51.600;7.310;2022-12-29T03:39:54;1.92;;;0.88;;
14052;SDS011;7101;51.600;7.310;2022-12-29T03:42:23;1.88;;;0.82;;
14052;SDS011;7101;51.600;7.310;2022-12-29T03:44:54;2.85;;;0.90;;
14052;SDS011;7101;51.600;7.310;2022-12-29T03:47:22;2.15;;;1.05;;
14052;SDS011;7101;51.600;7.310;2022-12-29T03:49:51;2.13;;;0.82;;
14052;SDS011;7101;51.600;7.310;2022-12-29T03:52:19;1.63;;;0.90;;
14052;SDS011;7101;51.600;7.310;2022-12-29T03:54:47;1.52;;;0.60;;
14052;SDS011;7101;51.600;7.310;2022-12-29T03:57:14;2.08;;;0.88;;
14052;SDS011;7101;51.600;7.310;2022-12-29T03:59:41;2.20;;;1.00;;
14052;SDS011;7101;51.600;7.310;2022-12-29T04:02:07;2.08;;;0.93;;
14052;SDS011;7101;51.600;7.310;2022-12-29T04:04:34;5.43;;;1.02;;
14052;SDS011;7101;51.600;7.310;2022-12-29T04:07:03;1.50;;;0.75;;
14052;SDS011;7101;51.600;7.310;2022-12-29T04:09:30;1.88;;;0.80;;
14052;SDS011;7101;51.600;7.310;2022-12-29T04:11:56;2.50;;;0.82;;
14052;SDS011;7101;51.600;7.310;2022-12-29T04:14:23;0.70;;;0.63;;
14052;SDS011;7101;51.600;7.310;2022-12-29T04:16:50;1.92;;;0.77;;
14052;SDS011;7101;51.600;7.310;2022-12-29T04:19:17;2.05;;;0.70;;
14052;SDS011;7101;51.600;7.310;2022-12-29T04:21:44;2.72;;;0.73;;
14052;SDS011;7101;51.600;7.310;2022-12-29T04:24:11;2.65;;;1.02;;
14052;SDS011;7101;51.600;7.310;2022-12-29T04:26:38;1.83;;;1.00;;
14052;SDS011;7101;51.600;7.310;2022-12-29T04:29:05;1.60;;;0.80;;
14052;SDS011;7101;51.600;7.310;2022-12-29T04:31:32;1.67;;;0.70;;
14052;SDS011;7101;51.600;7.310;2022-12-29T04:33:59;1.95;;;0.70;;
14052;SDS011;7101;51.600;7.310;2022-12-29T04:36:26;1.27;;;0.88;;
14052;SDS011;7101;51.600;7.310;2022-12-29T04:38:53;1.10;;;0.60;;
14052;SDS011;7101;51.600;7.310;2022-12-29T04:41:22;1.90;;;0.80;;
14052;SDS011;7101;51.600;7.310;2022-12-29T04:43:48;3.58;;;0.77;;
14052;SDS011;7101;51.600;7.310;2022-12-29T04:46:15;1.10;;;0.60;;
14052;SDS011;7101;51.600;7.310;2022-12-29T04:48:42;1.20;;;0.70;;
14052;SDS011;7101;51.600;7.310;2022-12-29T04:51:09;0.68;;;0.65;;
14052;SDS011;7101;51.600;7.310;2022-12-29T04:53:36;2.35;;;0.88;;
14052;SDS011;7101;51.600;7.310;2022-12-29T04:56:03;1.77;;;0.70;;
14052;SDS011;7101;51.600;7.310;2022-12-29T04:58:31;1.20;;;0.68;;
14052;SDS011;7101;51.600;7.310;2022-12-29T05:00:59;1.23;;;0.70;;
14052;SDS011;7101;51.600;7.310;2022-12-29T05:03:28;1.13;;;0.68;;
14052;SDS011;7101;51.600;7.310;2022-12-29T05:06:00;1.10;;;0.77;;
14052;SDS011;7101;51.600;7.310;2022-12-29T05:08:28;1.40;;;0.77;;
14052;SDS011;7101;51.600;7.310;2022-12-29T05:10:54;0.80;;;0.68;;
14052;SDS011;7101;51.600;7.310;2022-12-29T05:13:21;2.70;;;0.65;;
14052;SDS011;7101;51.600;7.310;2022-12-29T05:15:50;1.33;;;0.70;;
14052;SDS011;7101;51.600;7.310;2022-12-29T05:18:18;1.55;;;0.60;;
14052;SDS011;7101;51.600;7.310;2022-12-29T05:20:45;4.03;;;1.05;;
14052;SDS011;7101;51.600;7.310;2022-12-29T05:23:14;0.80;;;0.57;;
14052;SDS011;7101;51.600;7.310;2022-12-29T05:25:42;1.35;;;0.63;;
14052;SDS011;7101;51.600;7.310;2022-12-29T05:28:11;0.80;;;0.60;;
14052;SDS011;7101;51.600;7.310;2022-12-29T05:30:38;1.02;;;0.52;;
14052;SDS011;7101;51.600;7.310;2022-12-29T05:33:06;1.88;;;0.70;;
14052;SDS011;7101;51.600;7.310;2022-12-29T05:35:37;3.45;;;0.75;;
14052;SDS011;7101;51.600;7.310;2022-12-29T05:38:04;2.13;;;0.77;;
14052;SDS011;7101;51.600;7.310;2022-12-29T05:40:31;1.80;;;0.73;;
14052;SDS011;7101;51.600;7.310;2022-12-29T05:42:57;1.80;;;0.73;;
14052;SDS011;7101;51.600;7.310;2022-12-29T05:45:24;1.63;;;0.73;;
14052;SDS011;7101;51.600;7.310;2022-12-29T05:47:51;2.95;;;0.75;;
14052;SDS011;7101;51.600;7.310;2022-12-29T05:50:19;2.22;;;0.70;;
14052;SDS011;7101;51.600;7.310;2022-12-29T05:52:46;1.88;;;0.68;;
14052;SDS011;7101;51.600;7.310;2022-12-29T05:55:13;3.88;;;1.00;;
14052;SDS011;7101;51.600;7.310;2022-12-29T05:57:42;3.15;;;0.85;;
14052;SDS011;7101;51.600;7.310;2022-12-29T06:00:09;2.50;;;0.93;;
14052;SDS011;7101;51.600;7.310;2022-12-29T06:02:37;1.15;;;0.70;;
14052;SDS011;7101;51.600;7.310;2022-12-29T06:05:05;1.55;;;0.70;;
14052;SDS011;7101;51.600;7.310;2022-12-29T06:07:33;2.53;;;0.77;;
14052;SDS011;7101;51.600;7.310;2022-12-29T06:10:00;1.08;;;0.80;;
14052;SDS011;7101;51.600;7.310;2022-12-29T06:12:27;3.05;;;0.85;;
14052;SDS011;7101;51.600;7.310;2022-12-29T06:14:53;2.92;;;0.90;;
14052;SDS011;7101;51.600;7.310;2022-12-29T06:17:20;1.15;;;0.60;;
14052;SDS011;7101;51.600;7.310;2022-12-29T06:19:47;2.60;;;0.90;;
14052;SDS011;7101;51.600;7.310;2022-12-29T06:22:14;3.53;;;0.80;;
14052;SDS011;7101;51.600;7.310;2022-12-29T06:24:42;1.92;;;0.80;;
14052;SDS011;7101;51.600;7.310;2022-12-29T06:27:09;1.90;;;0.70;;
14052;SDS011;7101;51.600;7.310;2022-12-29T06:29:36;2.28;;;0.80;;
14052;SDS011;7101;51.600;7.310;2022-12-29T06:32:05;2.72;;;1.10;;
14052;SDS011;7101;51.600;7.310;2022-12-29T06:34:31;2.17;;;0.80;;
14052;SDS011;7101;51.600;7.310;2022-12-29T06:36:59;3.03;;;1.20;;
14052;SDS011;7101;51.600;7.310;2022-12-29T06:39:26;1.92;;;0.80;;
14052;SDS011;7101;51.600;7.310;2022-12-29T06:41:55;1.83;;;0.93;;
14052;SDS011;7101;51.600;7.310;2022-12-29T06:44:22;2.67;;;1.60;;
14052;SDS011;7101;51.600;7.310;2022-12-29T06:46:50;1.88;;;0.90;;
14052;SDS011;7101;51.600;7.310;2022-12-29T06:49:17;1.50;;;0.90;;
14052;SDS011;7101;51.600;7.310;2022-12-29T06:51:44;2.45;;;1.35;;
14052;SDS011;7101;51.600;7.310;2022-12-29T06:54:11;3.78;;;1.98;;
14052;SDS011;7101;51.600;7.310;2022-12-29T06:56:38;4.13;;;1.23;;
14052;SDS011;7101;51.600;7.310;2022-12-29T06:59:06;3.97;;;2.30;;
14052;SDS011;7101;51.600;7.310;2022-12-29T07:01:33;3.20;;;1.10;;
14052;SDS011;7101;51.600;7.310;2022-12-29T07:04:01;2.03;;;0.93;;
14052;SDS011;7101;51.600;7.310;2022-12-29T07:06:28;3.47;;;1.15;;
14052;SDS011;7101;51.600;7.310;2022-12-29T07:08:55;1.92;;;0.90;;
14052;SDS011;7101;51.600;7.310;2022-12-29T07:11:22;3.58;;;1.00;;
14052;SDS011;7101;51.600;7.310;2022-12-29T07:13:50;1.45;;;0.82;;
14052;SDS011;7101;51.600;7.310;2022-12-29T07:16:18;2.50;;;1.13;;
14052;SDS011;7101;51.600;7.310;2022-12-29T07:18:45;2.83;;;0.93;;
14052;SDS011;7101;51.600;7.310;2022-12-29T07:21:12;2.75;;;1.42;;
14052;SDS011;7101;51.600;7.310;2022-12-29T07:23:39;3.13;;;1.15;;
14052;SDS011;7101;51.600;7.310;2022-12-29T07:26:06;2.50;;;1.23;;
14052;SDS011;7101;51.600;7.310;2022-12-29T07:28:36;1.58;;;1.23;;
14052;SDS011;7101;51.600;7.310;2022-12-29T07:31:04;2.97;;;0.80;;
14052;SDS011;7101;51.600;7.310;2022-12-29T07:33:33;3.67;;;1.00;;
14052;SDS011;7101;51.600;7.310;2022-12-29T07:36:00;2.50;;;0.90;;
14052;SDS011;7101;51.600;7.310;2022-12-29T07:38:27;3.80;;;1.25;;
14052;SDS011;7101;51.600;7.310;2022-12-29T07:40:56;3.10;;;1.40;;
14052;SDS011;7101;51.600;7.310;2022-12-29T07:43:24;2.60;;;1.10;;
14052;SDS011;7101;51.600;7.310;2022-12-29T07:45:51;3.42;;;1.00;;
14052;SDS011;7101;51.600;7.310;2022-12-29T07:48:20;3.03;;;1.85;;
14052;SDS011;7101;51.600;7.310;2022-12-29T07:50:48;4.53;;;1.13;;
14052;SDS011;7101;51.600;7.310;2022-12-29T07:53:15;3.75;;;1.23;;
14052;SDS011;7101;51.600;7.310;2022-12-29T07:55:44;3.00;;;1.27;;
14052;SDS011;7101;51.600;7.310;2022-12-29T07:58:11;4.32;;;1.23;;
14052;SDS011;7101;51.600;7.310;2022-12-29T08:00:38;3.65;;;1.08;;
14052;SDS011;7101;51.600;7.310;2022-12-29T08:03:06;3.92;;;1.17;;
14052;SDS011;7101;51.600;7.310;2022-12-29T08:05:32;4.38;;;1.02;;
14052;SDS011;7101;51.600;7.310;2022-12-29T08:08:01;3.85;;;1.20;;
14052;SDS011;7101;51.600;7.310;2022-12-29T08:10:28;4.63;;;1.02;;
14052;SDS011;7101;51.600;7.310;2022-12-29T08:12:55;3.33;;;1.20;;
14052;SDS011;7101;51.600;7.310;2022-12-29T08:15:22;5.32;;;1.20;;
14052;SDS011;7101;51.600;7.310;2022-12-29T08:17:49;3.85;;;1.20;;
14052;SDS011;7101;51.600;7.310;2022-12-29T08:20:16;8.23;;;2.90;;
14052;SDS011;7101;51.600;7.310;2022-12-29T08:22:43;10.23;;;4.68;;
14052;SDS011;7101;51.600;7.310;2022-12-29T08:25:12;7.25;;;2.92;;
14052;SDS011;7101;51.600;7.310;2022-12-29T08:27:39;5.60;;;2.28;;
14052;SDS011;7101;51.600;7.310;2022-12-29T08:30:07;8.23;;;3.85;;
14052;SDS011;7101;51.600;7.310;2022-12-29T08:32:35;8.70;;;3.03;;
14052;SDS011;7101;51.600;7.310;2022-12-29T08:35:02;6.43;;;2.53;;
14052;SDS011;7101;51.600;7.310;2022-12-29T08:37:31;5.95;;;1.73;;
14052;SDS011;7101;51.600;7.310;2022-12-29T08:39:58;7.53;;;1.80;;
14052;SDS011;7101;51.600;7.310;2022-12-29T08:42:30;12.85;;;5.70;;
14052;SDS011;7101;51.600;7.310;2022-12-29T08:44:57;10.63;;;4.28;;
14052;SDS011;7101;51.600;7.310;2022-12-29T08:47:24;3.90;;;1.48;;
14052;SDS011;7101;51.600;7.310;2022-12-29T08:49:51;8.27;;;3.22;;
14052;SDS011;7101;51.600;7.310;2022-12-29T08:52:18;5.20;;;1.50;;
14052;SDS011;7101;51.600;7.310;2022-12-29T08:54:45;7.80;;;2.80;;
14052;SDS011;7101;51.600;7.310;2022-12-29T08:57:12;7.85;;;2.88;;
14052;SDS011;7101;51.600;7.310;2022-12-29T08:59:40;5.85;;;2.60;;
14052;SDS011;7101;51.600;7.310;2022-12-29T09:02:09;7.63;;;2.20;;
14052;SDS011;7101;51.600;7.310;2022-12-29T09:04:37;5.35;;;1.27;;
14052;SDS011;7101;51.600;7.310;2022-12-29T09:07:04;4.22;;;1.45;;
14052;SDS011;7101;51.600;7.310;2022-12-29T09:09:31;8.35;;;1.80;;
14052;SDS011;7101;51.600;7.310;2022-12-29T09:11:58;4.88;;;1.42;;
14052;SDS011;7101;51.600;7.310;2022-12-29T09:14:25;5.68;;;1.75;;
14052;SDS011;7101;51.600;7.310;2022-12-29T09:16:54;4.88;;;1.50;;
14052;SDS011;7101;51.600;7.310;2022-12-29T09:19:38;7.65;;;1.52;;
14052;SDS011;7101;51.600;7.310;2022-12-29T09:22:05;6.68;;;1.80;;
14052;SDS011;7101;51.600;7.310;2022-12-29T09:24:32;8.60;;;2.00;;
14052;SDS011;7101;51.600;7.310;2022-12-29T09:26:59;3.90;;;1.40;;
14052;SDS011;7101;51.600;7.310;2022-12-29T09:29:26;4.97;;;1.15;;
14052;SDS011;7101;51.600;7.310;2022-12-29T09:31:54;5.72;;;1.42;;
14052;SDS011;7101;51.600;7.310;2022-12-29T09:34:21;6.63;;;1.83;;
14052;SDS011;7101;51.600;7.310;2022-12-29T09:36:48;5.03;;;1.30;;
14052;SDS011;7101;51.600;7.310;2022-12-29T09:39:15;6.05;;;1.60;;
14052;SDS011;7101;51.600;7.310;2022-12-29T09:41:43;4.57;;;1.42;;
14052;SDS011;7101;51.600;7.310;2022-12-29T09:44:17;3.83;;;1.10;;
14052;SDS011;7101;51.600;7.310;2022-12-29T09:46:49;5.25;;;1.35;;
14052;SDS011;7101;51.600;7.310;2022-12-29T09:49:23;8.00;;;1.38;;
14052;SDS011;7101;51.600;7.310;2022-12-29T09:51:57;5.13;;;1.33;;
14052;SDS011;7101;51.600;7.310;2022-12-29T09:54:36;8.23;;;1.98;;
14052;SDS011;7101;51.600;7.310;2022-12-29T09:57:12;7.30;;;2.03;;
14052;SDS011;7101;51.600;7.310;2022-12-29T09:59:42;5.10;;;1.55;;
14052;SDS011;7101;51.600;7.310;2022-12-29T10:02:22;7.25;;;1.80;;
14052;SDS011;7101;51.600;7.310;2022-12-29T10:04:56;4.75;;;1.60;;
14052;SDS011;7101;51.600;7.310;2022-12-29T10:07:26;5.68;;;1.67;;
14052;SDS011;7101;51.600;7.310;2022-12-29T10:10:01;7.07;;;1.55;;
14052;SDS011;7101;51.600;7.310;2022-12-29T10:12:55;8.45;;;2.28;;
14052;SDS011;7101;51.600;7.310;2022-12-29T10:15:57;6.65;;;1.70;;
14052;SDS011;7101;51.600;7.310;2022-12-29T10:18:47;5.95;;;1.30;;
14052;SDS011;7101;51.600;7.310;2022-12-29T10:21:27;5.63;;;1.42;;
14052;SDS011;7101;51.600;7.310;2022-12-29T10:24:04;7.15;;;1.70;;
14052;SDS011;7101;51.600;7.310;2022-12-29T10:26:37;12.05;;;1.83;;
14052;SDS011;7101;51.600;7.310;2022-12-29T10:29:10;5.10;;;1.63;;
14052;SDS011;7101;51.600;7.310;2022-12-29T10:31:42;7.55;;;1.63;;
14052;SDS011;7101;51.600;7.310;2022-12-29T10:34:15;5.40;;;1.60;;
14052;SDS011;7101;51.600;7.310;2022-12-29T10:36:48;5.28;;;1.58;;
14052;SDS011;7101;51.600;7.310;2022-12-29T10:39:19;10.02;;;1.75;;
14052;SDS011;7101;51.600;7.310;2022-12-29T10:41:53;6.43;;;1.75;;
14052;SDS011;7101;51.600;7.310;2022-12-29T10:44:26;5.05;;;1.30;;
14052;SDS011;7101;51.600;7.310;2022-12-29T10:46:58;10.95;;;1.75;;
14052;SDS011;7101;51.600;7.310;2022-12-29T10:49:29;5.78;;;1.80;;
14052;SDS011;7101;51.600;7.310;2022-12-29T10:52:02;4.22;;;1.50;;
14052;SDS011;7101;51.600;7.310;2022-12-29T10:54:32;7.22;;;1.98;;
14052;SDS011;7101;51.600;7.310;2022-12-29T10:57:05;4.25;;;1.17;;
14052;SDS011;7101;51.600;7.310;2022-12-29T10:59:37;5.53;;;1.42;;
14052;SDS011;7101;51.600;7.310;2022-12-29T11:02:14;7.32;;;1.80;;
14052;SDS011;7101;51.600;7.310;2022-12-29T11:04:55;5.07;;;1.40;;
14052;SDS011;7101;51.600;7.310;2022-12-29T11:07:30;4.82;;;1.70;;
14052;SDS011;7101;51.600;7.310;2022-12-29T11:12:46;5.80;;;1.50;;
14052;SDS011;7101;51.600;7.310;2022-12-29T11:15:21;10.45;;;1.48;;
14052;SDS011;7101;51.600;7.310;2022-12-29T11:18:03;11.48;;;2.00;;
14052;SDS011;7101;51.600;7.310;2022-12-29T11:20:32;10.00;;;1.80;;
14052;SDS011;7101;51.600;7.310;2022-12-29T11:23:02;5.93;;;1.50;;
14052;SDS011;7101;51.600;7.310;2022-12-29T11:25:30;5.60;;;1.67;;
14052;SDS011;7101;51.600;7.310;2022-12-29T11:27:58;6.75;;;1.55;;
14052;SDS011;7101;51.600;7.310;2022-12-29T11:30:27;9.10;;;1.75;;
14052;SDS011;7101;51.600;7.310;2022-12-29T11:32:56;7.55;;;2.00;;
14052;SDS011;7101;51.600;7.310;2022-12-29T11:35:31;5.47;;;1.45;;
14052;SDS011;7101;51.600;7.310;2022-12-29T11:38:02;6.40;;;1.40;;
14052;SDS011;7101;51.600;7.310;2022-12-29T11:40:30;5.20;;;1.45;;
14052;SDS011;7101;51.600;7.310;2022-12-29T11:43:03;6.55;;;1.42;;
14052;SDS011;7101;51.600;7.310;2022-12-29T11:45:32;6.82;;;1.88;;
14052;SDS011;7101;51.600;7.310;2022-12-29T11:48:06;9.13;;;2.03;;
14052;SDS011;7101;51.600;7.310;2022-12-29T11:50:35;6.03;;;1.58;;
14052;SDS011;7101;51.600;7.310;2022-12-29T11:53:07;6.53;;;1.65;;
14052;SDS011;7101;51.600;7.310;2022-12-29T11:55:50;6.00;;;1.60;;
14052;SDS011;7101;51.600;7.310;2022-12-29T11:58:17;5.25;;;1.30;;
14052;SDS011;7101;51.600;7.310;2022-12-29T12:00:44;10.50;;;2.15;;
14052;SDS011;7101;51.600;7.310;2022-12-29T12:03:16;8.35;;;1.40;;
14052;SDS011;7101;51.600;7.310;2022-12-29T12:05:46;9.13;;;1.90;;
14052;SDS011;7101;51.600;7.310;2022-12-29T12:08:20;7.03;;;1.45;;
14052;SDS011;7101;51.600;7.310;2022-12-29T12:10:55;8.52;;;1.90;;
14052;SDS011;7101;51.600;7.310;2022-12-29T12:13:29;9.18;;;1.95;;
14052;SDS011;7101;51.600;7.310;2022-12-29T12:16:02;6.57;;;2.00;;
14052;SDS011;7101;51.600;7.310;2022-12-29T12:18:36;6.65;;;1.90;;
14052;SDS011;7101;51.600;7.310;2022-12-29T12:21:12;8.75;;;1.83;;
14052;SDS011;7101;51.600;7.310;2022-12-29T12:23:47;6.28;;;1.58;;
14052;SDS011;7101;51.600;7.310;2022-12-29T12:26:28;8.38;;;1.88;;
14052;SDS011;7101;51.600;7.310;2022-12-29T12:28:58;5.70;;;1.83;;
14052;SDS011;7101;51.600;7.310;2022-12-29T12:31:34;5.93;;;1.65;;
14052;SDS011;7101;51.600;7.310;2022-12-29T12:34:11;7.75;;;2.03;;
14052;SDS011;7101;51.600;7.310;2022-12-29T12:39:49;7.10;;;1.70;;
14052;SDS011;7101;51.600;7.310;2022-12-29T12:42:39;5.53;;;1.63;;
14052;SDS011;7101;51.600;7.310;2022-12-29T12:45:22;6.93;;;2.08;;
14052;SDS011;7101;51.600;7.310;2022-12-29T12:48:02;4.53;;;1.40;;
14052;SDS011;7101;51.600;7.310;2022-12-29T12:50:46;8.77;;;1.80;;
14052;SDS011;7101;51.600;7.310;2022-12-29T12:53:21;7.82;;;2.03;;
14052;SDS011;7101;51.600;7.310;2022-12-29T12:56:19;8.02;;;1.77;;
14052;SDS011;7101;51.600;7.310;2022-12-29T12:59:07;5.55;;;1.60;;
14052;SDS011;7101;51.600;7.310;2022-12-29T13:01:49;4.72;;;1.55;;
14052;SDS011;7101;51.600;7.310;2022-12-29T13:04:31;7.88;;;1.90;;
14052;SDS011;7101;51.600;7.310;2022-12-29T13:07:09;6.88;;;1.88;;
14052;SDS011;7101;51.600;7.310;2022-12-29T13:09:48;6.50;;;1.90;;
14052;SDS011;7101;51.600;7.310;2022-12-29T13:12:32;7.05;;;1.85;;
14052;SDS011;7101;51.600;7.310;2022-12-29T13:15:13;6.55;;;1.65;;
14052;SDS011;7101;51.600;7.310;2022-12-29T13:17:49;6.20;;;1.80;;
14052;SDS011;7101;51.600;7.310;2022-12-29T13:20:24;5.57;;;1.77;;
14052;SDS011;7101;51.600;7.310;2022-12-29T13:22:58;8.32;;;1.67;;
14052;SDS011;7101;51.600;7.310;2022-12-29T13:25:34;6.30;;;1.73;;
14052;SDS011;7101;51.600;7.310;2022-12-29T13:28:09;8.15;;;1.98;;
14052;SDS011;7101;51.600;7.310;2022-12-29T13:30:44;6.28;;;1.67;;
14052;SDS011;7101;51.600;7.310;2022-12-29T13:33:20;6.15;;;1.80;;
14052;SDS011;7101;51.600;7.310;2022-12-29T13:35:59;8.02;;;1.88;;
14052;SDS011;7101;51.600;7.310;2022-12-29T13:38:29;8.70;;;1.70;;
14052;SDS011;7101;51.600;7.310;2022-12-29T13:41:02;9.57;;;2.15;;
14052;SDS011;7101;51.600;7.310;2022-12-29T13:43:36;8.25;;;2.00;;
14052;SDS011;7101;51.600;7.310;2022-12-29T13:46:07;5.15;;;1.70;;
14052;SDS011;7101;51.600;7.310;2022-12-29T13:48:39;10.07;;;2.28;;
14052;SDS011;7101;51.600;7.310;2022-12-29T13:51:09;6.32;;;1.88;;
14052;SDS011;7101;51.600;7.310;2022-12-29T13:53:41;10.85;;;3.58;;
14052;SDS011;7101;51.600;7.310;2022-12-29T13:56:21;8.13;;;2.30;;
14052;SDS011;7101;51.600;7.310;2022-12-29T13:58:54;6.72;;;2.03;;
14052;SDS011;7101;51.600;7.310;2022-12-29T14:01:30;7.03;;;2.00;;
14052;SDS011;7101;51.600;7.310;2022-12-29T14:04:01;7.10;;;1.98;;
14052;SDS011;7101;51.600;7.310;2022-12-29T14:06:35;6.93;;;1.90;;
14052;SDS011;7101;51.600;7.310;2022-12-29T14:09:06;8.38;;;1.85;;
14052;SDS011;7101;51.600;7.310;2022-12-29T14:11:57;8.77;;;1.83;;
14052;SDS011;7101;51.600;7.310;2022-12-29T14:14:27;8.13;;;1.90;;
14052;SDS011;7101;51.600;7.310;2022-12-29T14:16:59;7.03;;;1.92;;
14052;SDS011;7101;51.600;7.310;2022-12-29T14:19:36;5.40;;;1.80;;
14052;SDS011;7101;51.600;7.310;2022-12-29T14:22:06;6.63;;;1.80;;
14052;SDS011;7101;51.600;7.310;2022-12-29T14:24:43;8.65;;;1.98;;
14052;SDS011;7101;51.600;7.310;2022-12-29T14:33:21;6.95;;;1.95;;
14052;SDS011;7101;51.600;7.310;2022-12-29T14:35:51;8.55;;;2.47;;
14052;SDS011;7101;51.600;7.310;2022-12-29T14:38:27;7.35;;;2.20;;
14052;SDS011;7101;51.600;7.310;2022-12-29T14:43:54;9.70;;;2.00;;
14052;SDS011;7101;51.600;7.310;2022-12-29T14:49:16;5.57;;;1.58;;
14052;SDS011;7101;51.600;7.310;2022-12-29T14:51:49;7.78;;;1.88;;
14052;SDS011;7101;51.600;7.310;2022-12-29T14:57:18;11.02;;;1.98;;
14052;SDS011;7101;51.600;7.310;2022-12-29T15:02:53;8.07;;;2.20;;
14052;SDS011;7101;51.600;7.310;2022-12-29T15:05:33;5.20;;;2.20;;
14052;SDS011;7101;51.600;7.310;2022-12-29T15:08:16;7.38;;;3.45;;
14052;SDS011;7101;51.600;7.310;2022-12-29T15:10:46;9.27;;;2.47;;
14052;SDS011;7101;51.600;7.310;2022-12-29T15:13:20;6.60;;;1.92;;
14052;SDS011;7101;51.600;7.310;2022-12-29T15:15:50;6.22;;;1.70;;
14052;SDS011;7101;51.600;7.310;2022-12-29T15:18:23;8.80;;;1.98;;
14052;SDS011;7101;51.600;7.310;2022-12-29T15:20:55;7.55;;;1.90;;
14052;SDS011;7101;51.600;7.310;2022-12-29T15:23:25;10.30;;;2.20;;
14052;SDS011;7101;51.600;7.310;2022-12-29T15:25:54;6.25;;;1.70;;
14052;SDS011;7101;51.600;7.310;2022-12-29T15:28:22;4.97;;;1.63;;
14052;SDS011;7101;51.600;7.310;2022-12-29T15:30:52;6.97;;;1.70;;
14052;SDS011;7101;51.600;7.310;2022-12-29T15:33:20;7.88;;;1.70;;
14052;SDS011;7101;51.600;7.310;2022-12-29T15:35:53;6.40;;;2.00;;
14052;SDS011;7101;51.600;7.310;2022-12-29T15:38:22;7.65;;;1.58;;
14052;SDS011;7101;51.600;7.310;2022-12-29T15:40:52;3.63;;;1.33;;
14052;SDS011;7101;51.600;7.310;2022-12-29T15:43:23;9.23;;;1.75;;
14052;SDS011;7101;51.600;7.310;2022-12-29T15:45:59;3.85;;;1.42;;
14052;SDS011;7101;51.600;7.310;2022-12-29T15:48:29;5.53;;;1.80;;
14052;SDS011;7101;51.600;7.310;2022-12-29T15:50:57;6.55;;;1.83;;
14052;SDS011;7101;51.600;7.310;2022-12-29T15:53:26;6.80;;;1.60;;
14052;SDS011;7101;51.600;7.310;2022-12-29T15:55:56;5.68;;;1.58;;